Time;durP1;ratioP1;P1;durP2;ratioP2;P2;SDS_P1;SDS_P2;PMS_P1;PMS_P2;Temp;Humidity;BMP_temperature;BMP_pressure;BME280_temperature;BME280_humidity;BME280_pressure;Samples;Min_cycle;Max_cycle;Signal;HPM_P1;HPM_P2
2022/10/16 00:00:45;;;;;;;10.40;2.90;;;;;;;12.13;92.40;100251.65;103370;1284;23872;-67
2022/10/16 00:03:35;;;;;;;10.00;3.20;;;;;;;12.11;92.41;100244.97;103321;1283;22448;-68
2022/10/16 00:06:08;;;;;;;12.50;3.00;;;;;;;12.10;92.36;100249.42;103452;1301;22585;-67
2022/10/16 00:08:41;;;;;;;8.80;2.70;;;;;;;12.10;92.55;100256.44;103447;1285;25169;-68
2022/10/16 00:11:15;;;;;;;12.80;3.30;;;;;;;12.10;92.50;100255.52;103780;1286;22492;-67
2022/10/16 00:13:48;;;;;;;9.70;2.70;;;;;;;12.11;92.59;100260.27;103410;1306;22765;-67
2022/10/16 00:16:20;;;;;;;10.60;3.30;;;;;;;12.11;92.74;100260.88;103446;1293;24037;-67
2022/10/16 00:18:51;;;;;;;9.10;2.60;;;;;;;12.11;92.87;100257.27;103551;1301;22523;-67
2022/10/16 00:21:25;;;;;;;14.70;3.40;;;;;;;12.10;92.84;100254.09;103588;1278;22541;-69
2022/10/16 00:23:58;;;;;;;7.20;2.20;;;;;;;12.09;93.17;100251.84;103453;1285;22456;-67
2022/10/16 00:26:31;;;;;;;9.60;2.70;;;;;;;12.09;93.29;100257.74;103417;1277;22473;-68
2022/10/16 00:29:03;;;;;;;8.40;2.40;;;;;;;12.10;93.34;100257.36;103461;1306;22605;-67
2022/10/16 00:31:35;;;;;;;11.20;2.70;;;;;;;12.11;93.57;100261.23;103460;1300;22471;-67
2022/10/16 00:34:07;;;;;;;8.60;2.50;;;;;;;12.11;93.65;100254.47;103438;1283;25252;-67
2022/10/16 00:36:39;;;;;;;8.70;2.10;;;;;;;12.12;93.54;100250.71;103241;1283;22477;-66
2022/10/16 00:39:10;;;;;;;9.30;2.70;;;;;;;12.14;93.54;100259.64;103148;1298;23311;-67
2022/10/16 00:41:42;;;;;;;8.10;2.20;;;;;;;12.13;93.57;100255.73;103119;1283;22585;-66
2022/10/16 00:44:46;;;;;;;9.70;2.60;;;;;;;12.14;93.29;100254.16;103227;1306;22525;-67
2022/10/16 00:47:23;;;;;;;8.40;2.40;;;;;;;12.14;93.26;100253.14;103165;1283;24249;-66
2022/10/16 00:49:59;;;;;;;10.90;2.80;;;;;;;12.13;93.33;100253.27;103058;1307;25495;-67
2022/10/16 00:52:31;;;;;;;9.10;2.70;;;;;;;12.11;93.19;100253.52;103150;1281;24459;-66
2022/10/16 00:55:04;;;;;;;9.40;2.80;;;;;;;12.11;93.15;100253.30;103179;1301;22595;-67
2022/10/16 00:57:36;;;;;;;8.90;3.20;;;;;;;12.11;93.12;100250.59;103090;1291;22669;-66
2022/10/16 01:00:11;;;;;;;10.40;2.90;;;;;;;12.09;93.21;100249.90;103170;1306;25878;-67
2022/10/16 01:02:43;;;;;;;11.00;3.30;;;;;;;12.08;93.19;100253.31;103184;1306;22477;-66
2022/10/16 01:05:15;;;;;;;10.70;3.20;;;;;;;12.08;93.19;100255.25;103244;1284;26135;-67
2022/10/16 01:07:57;;;;;;;11.50;3.40;;;;;;;12.07;93.21;100256.15;103232;1301;22630;-66
2022/10/16 01:10:37;;;;;;;11.10;3.00;;;;;;;12.07;93.39;100256.19;103181;1277;24399;-67
2022/10/16 01:13:11;;;;;;;10.60;3.00;;;;;;;12.05;93.38;100254.13;103144;1281;26687;-67
2022/10/16 01:15:48;;;;;;;13.70;3.60;;;;;;;12.02;93.47;100256.54;103196;1281;25224;-67
2022/10/16 01:18:28;;;;;;;12.40;3.30;;;;;;;12.00;93.78;100262.27;103210;1285;25279;-66
2022/10/16 01:21:05;;;;;;;9.70;3.20;;;;;;;11.98;93.90;100265.19;103125;1277;26009;-67
2022/10/16 01:23:53;;;;;;;7.40;2.50;;;;;;;11.98;93.97;100251.45;103194;1285;22469;-66
2022/10/16 01:26:45;;;;;;;9.90;2.90;;;;;;;11.99;94.14;100250.44;103183;1285;24355;-66
2022/10/16 01:29:23;;;;;;;8.40;2.50;;;;;;;11.99;94.12;100250.96;103259;1299;22549;-66
2022/10/16 01:31:58;;;;;;;13.30;3.60;;;;;;;12.00;94.04;100258.65;103162;1291;24205;-67
2022/10/16 01:34:36;;;;;;;8.30;2.40;;;;;;;12.00;94.22;100263.79;102894;1306;23242;-66
2022/10/16 01:37:12;;;;;;;7.00;2.10;;;;;;;12.01;94.25;100268.88;103009;1285;24232;-67
2022/10/16 01:39:47;;;;;;;8.20;2.60;;;;;;;12.01;94.20;100262.07;102981;1307;22469;-67
2022/10/16 01:42:23;;;;;;;10.80;2.80;;;;;;;12.02;94.45;100258.02;102948;1277;22939;-66
2022/10/16 01:44:57;;;;;;;11.70;2.90;;;;;;;12.02;94.37;100254.40;103000;1285;25765;-67
2022/10/16 01:47:31;;;;;;;7.90;2.70;;;;;;;12.02;94.34;100249.81;103266;1301;26680;-67
2022/10/16 01:50:04;;;;;;;9.50;2.50;;;;;;;12.03;94.38;100250.34;103310;1301;24326;-67
2022/10/16 01:52:38;;;;;;;10.70;3.50;;;;;;;12.04;94.39;100250.36;103007;1301;22460;-66
2022/10/16 01:55:14;;;;;;;10.50;2.90;;;;;;;12.05;94.19;100250.02;103001;1299;22585;-66
2022/10/16 01:57:49;;;;;;;9.50;3.00;;;;;;;12.05;94.27;100259.58;102926;1306;22843;-67
2022/10/16 02:00:23;;;;;;;11.10;3.00;;;;;;;12.04;94.37;100259.26;103100;1277;25281;-66
2022/10/16 02:02:56;;;;;;;10.10;2.90;;;;;;;12.03;94.54;100258.43;103038;1283;22476;-67
2022/10/16 02:05:32;;;;;;;9.30;3.20;;;;;;;12.00;94.67;100261.65;103261;1291;25420;-67
2022/10/16 02:08:05;;;;;;;11.00;3.40;;;;;;;11.99;94.79;100266.82;103177;1306;22464;-66
2022/10/16 02:10:38;;;;;;;9.20;3.20;;;;;;;11.98;95.05;100270.27;103125;1306;25846;-66
2022/10/16 02:13:13;;;;;;;11.20;4.00;;;;;;;11.98;94.97;100267.58;103227;1278;25967;-66
2022/10/16 02:15:44;;;;;;;10.90;3.60;;;;;;;11.99;94.98;100263.83;103118;1285;22988;-66
2022/10/16 02:18:16;;;;;;;13.20;4.10;;;;;;;12.00;95.20;100263.48;103170;1283;25437;-66
2022/10/16 02:20:53;;;;;;;11.80;3.00;;;;;;;12.00;95.24;100268.42;103177;1306;22486;-67
2022/10/16 02:23:36;;;;;;;10.70;2.90;;;;;;;12.01;95.09;100268.52;103107;1286;22475;-66
2022/10/16 02:26:12;;;;;;;10.70;3.10;;;;;;;12.02;95.13;100271.75;103128;1306;22608;-66
2022/10/16 02:28:47;;;;;;;12.30;3.80;;;;;;;12.03;95.19;100275.84;103440;1306;24458;-66
2022/10/16 02:31:26;;;;;;;10.20;3.80;;;;;;;12.03;95.11;100273.90;103206;1306;22470;-67
2022/10/16 02:34:01;;;;;;;11.00;3.60;;;;;;;12.04;95.00;100279.56;103047;1278;22506;-66
2022/10/16 02:36:33;;;;;;;10.90;3.20;;;;;;;12.05;94.92;100276.62;103226;1284;24079;-67
2022/10/16 02:39:07;;;;;;;10.80;3.60;;;;;;;12.05;94.88;100288.33;103203;1282;22884;-67
2022/10/16 02:41:39;;;;;;;10.40;3.50;;;;;;;12.06;94.86;100293.88;103161;1285;22485;-66
2022/10/16 02:44:10;;;;;;;8.40;3.00;;;;;;;12.07;94.86;100295.02;103246;1306;22487;-66
2022/10/16 02:46:42;;;;;;;11.00;3.60;;;;;;;12.08;94.89;100299.10;103208;1306;22616;-66
2022/10/16 02:49:13;;;;;;;11.50;3.40;;;;;;;12.09;94.76;100298.14;103160;1306;25440;-69
2022/10/16 02:51:45;;;;;;;13.80;4.40;;;;;;;12.08;94.66;100291.67;103143;1292;22718;-68
2022/10/16 02:54:18;;;;;;;13.90;4.10;;;;;;;12.08;94.69;100291.05;102995;1279;25278;-67
2022/10/16 02:56:50;;;;;;;11.40;4.30;;;;;;;12.07;94.59;100288.15;102946;1285;25857;-66
2022/10/16 02:59:21;;;;;;;13.70;3.80;;;;;;;12.07;94.63;100290.08;103191;1306;25722;-67
2022/10/16 03:01:52;;;;;;;13.70;4.70;;;;;;;12.06;94.66;100291.89;103148;1306;22445;-67
2022/10/16 03:04:23;;;;;;;12.50;3.50;;;;;;;12.06;94.76;100290.67;103001;1278;24595;-68
2022/10/16 03:06:55;;;;;;;11.50;3.90;;;;;;;12.07;94.52;100294.55;103335;1282;22510;-67
2022/10/16 03:09:26;;;;;;;10.30;3.80;;;;;;;12.07;94.70;100295.17;103520;1284;25717;-67
2022/10/16 03:11:57;;;;;;;10.50;3.40;;;;;;;12.08;94.74;100295.38;103370;1306;22539;-67
2022/10/16 03:14:29;;;;;;;11.50;4.10;;;;;;;12.08;94.59;100295.84;103430;1306;26005;-67
2022/10/16 03:17:00;;;;;;;11.10;3.50;;;;;;;12.08;94.86;100303.59;103589;1282;22563;-66
2022/10/16 03:19:32;;;;;;;13.00;4.10;;;;;;;12.09;94.93;100309.64;103499;1290;24203;-67
2022/10/16 03:22:03;;;;;;;14.90;4.20;;;;;;;12.09;94.92;100307.96;103423;1306;22937;-67
2022/10/16 03:24:35;;;;;;;14.80;4.10;;;;;;;12.09;94.92;100314.13;103350;1275;22590;-67
2022/10/16 03:27:06;;;;;;;14.00;4.50;;;;;;;12.08;94.84;100312.69;103470;1279;23378;-67
2022/10/16 03:29:38;;;;;;;13.60;4.20;;;;;;;12.10;95.02;100309.20;103380;1285;24183;-67
2022/10/16 03:32:09;;;;;;;13.40;4.60;;;;;;;12.10;94.91;100317.23;103437;1285;23073;-66
2022/10/16 03:34:41;;;;;;;14.70;4.40;;;;;;;12.11;94.98;100316.95;103541;1306;25714;-68
2022/10/16 03:37:13;;;;;;;14.80;4.90;;;;;;;12.12;94.85;100319.36;103428;1301;24396;-67
2022/10/16 03:39:44;;;;;;;13.90;4.60;;;;;;;12.12;95.00;100315.59;103332;1282;22486;-66
2022/10/16 03:42:16;;;;;;;13.10;4.80;;;;;;;12.13;95.05;100318.41;103410;1299;25329;-67
2022/10/16 03:44:47;;;;;;;14.50;5.30;;;;;;;12.15;95.08;100320.73;103275;1306;22487;-67
2022/10/16 03:47:21;;;;;;;13.20;5.10;;;;;;;12.15;95.17;100325.00;103298;1278;22506;-67
2022/10/16 03:49:53;;;;;;;13.20;4.50;;;;;;;12.16;95.32;100324.40;103458;1293;22477;-67
2022/10/16 03:52:26;;;;;;;12.20;4.00;;;;;;;12.17;95.33;100330.98;103390;1274;22894;-67
2022/10/16 03:54:58;;;;;;;15.00;4.10;;;;;;;12.19;95.46;100333.60;103575;1282;23094;-68
2022/10/16 03:57:30;;;;;;;12.80;4.40;;;;;;;12.19;95.53;100332.70;103259;1285;22628;-67
2022/10/16 04:00:02;;;;;;;11.50;4.10;;;;;;;12.21;95.90;100327.61;103400;1285;23956;-69
2022/10/16 04:02:33;;;;;;;10.70;4.10;;;;;;;12.21;95.81;100327.35;103327;1285;22477;-67
2022/10/16 04:05:04;;;;;;;12.60;3.90;;;;;;;12.22;96.10;100324.27;103372;1306;25760;-66
2022/10/16 04:07:36;;;;;;;9.20;3.20;;;;;;;12.23;96.20;100326.52;103382;1294;22500;-66
2022/10/16 04:10:08;;;;;;;13.10;3.90;;;;;;;12.23;96.53;100329.42;103421;1275;22524;-67
2022/10/16 04:12:40;;;;;;;11.50;3.90;;;;;;;12.25;96.51;100332.86;103464;1301;22585;-69
2022/10/16 04:15:12;;;;;;;13.10;4.90;;;;;;;12.26;96.52;100330.64;103324;1306;25057;-67
2022/10/16 04:17:43;;;;;;;12.80;4.40;;;;;;;12.27;96.64;100332.73;103373;1283;25382;-67
2022/10/16 04:20:15;;;;;;;13.50;5.10;;;;;;;12.28;96.76;100338.55;103382;1306;22495;-67
2022/10/16 04:22:46;;;;;;;12.40;4.20;;;;;;;12.28;96.62;100335.65;103438;1306;22691;-67
2022/10/16 04:25:18;;;;;;;12.80;5.00;;;;;;;12.28;96.70;100345.94;103309;1306;22590;-67
2022/10/16 04:27:49;;;;;;;15.70;4.80;;;;;;;12.29;96.65;100341.58;103301;1285;25916;-68
2022/10/16 04:30:20;;;;;;;13.20;5.20;;;;;;;12.30;96.51;100341.48;103314;1278;25272;-66
2022/10/16 04:32:53;;;;;;;15.00;5.00;;;;;;;12.29;96.69;100340.45;103387;1292;22795;-66
2022/10/16 04:35:25;;;;;;;10.90;3.80;;;;;;;12.29;96.69;100341.52;103379;1306;25517;-67
2022/10/16 04:37:58;;;;;;;10.70;3.30;;;;;;;12.29;96.70;100337.09;103549;1306;24927;-68
2022/10/16 04:40:32;;;;;;;14.30;4.80;;;;;;;12.29;96.67;100338.41;103538;1278;24164;-66
2022/10/16 04:43:04;;;;;;;14.00;5.00;;;;;;;12.28;96.73;100346.08;103609;1306;23095;-67
2022/10/16 04:45:35;;;;;;;12.50;4.00;;;;;;;12.27;96.76;100355.64;103349;1285;25406;-67
2022/10/16 04:48:06;;;;;;;12.50;4.00;;;;;;;12.27;96.46;100357.48;103931;1284;22666;-67
2022/10/16 04:50:39;;;;;;;9.40;3.50;;;;;;;12.27;96.66;100363.92;103317;1283;22509;-67
2022/10/16 04:53:10;;;;;;;13.30;3.60;;;;;;;12.27;96.73;100365.97;103492;1285;25620;-67
2022/10/16 04:55:43;;;;;;;11.50;4.40;;;;;;;12.28;96.76;100364.30;103421;1300;25002;-67
2022/10/16 04:58:14;;;;;;;12.10;5.00;;;;;;;12.28;96.68;100360.63;103542;1306;24281;-67
2022/10/16 05:00:47;;;;;;;11.60;4.70;;;;;;;12.28;96.85;100359.27;103387;1285;22519;-67
2022/10/16 05:03:18;;;;;;;13.80;4.90;;;;;;;12.26;96.84;100354.87;103349;1285;25365;-67
2022/10/16 05:05:50;;;;;;;14.80;6.00;;;;;;;12.27;96.97;100356.61;103368;1306;22491;-67
2022/10/16 05:08:22;;;;;;;14.50;5.40;;;;;;;12.25;96.84;100356.37;103348;1274;22483;-67
2022/10/16 05:10:53;;;;;;;13.40;4.70;;;;;;;12.25;96.79;100362.23;103455;1303;22601;-67
2022/10/16 05:13:26;;;;;;;13.90;5.50;;;;;;;12.25;96.94;100362.68;103283;1277;22536;-66
2022/10/16 05:15:58;;;;;;;18.80;6.20;;;;;;;12.24;96.87;100361.39;103271;1306;22706;-67
2022/10/16 05:18:30;;;;;;;15.50;5.40;;;;;;;12.23;96.95;100363.38;103309;1306;24273;-67
2022/10/16 05:21:01;;;;;;;17.90;5.10;;;;;;;12.23;97.01;100366.98;103384;1277;22601;-67
2022/10/16 05:23:32;;;;;;;13.10;4.90;;;;;;;12.22;97.07;100375.73;103311;1306;22522;-67
2022/10/16 05:26:03;;;;;;;14.20;5.40;;;;;;;12.23;97.13;100381.23;103184;1285;23654;-67
2022/10/16 05:28:35;;;;;;;16.20;5.50;;;;;;;12.23;97.06;100380.67;103177;1291;25417;-67
2022/10/16 05:31:09;;;;;;;14.90;5.40;;;;;;;12.23;97.17;100378.48;103218;1283;23367;-66
2022/10/16 05:33:41;;;;;;;16.90;6.80;;;;;;;12.24;97.09;100373.40;103204;1292;24358;-68
2022/10/16 05:36:12;;;;;;;16.10;5.20;;;;;;;12.25;96.99;100372.25;103140;1307;22913;-67
2022/10/16 05:38:44;;;;;;;14.70;6.20;;;;;;;12.24;97.19;100368.61;103202;1282;26363;-67
2022/10/16 05:41:21;;;;;;;14.10;5.20;;;;;;;12.24;97.25;100368.11;103282;1282;26436;-67
2022/10/16 05:43:52;;;;;;;17.10;6.60;;;;;;;12.25;97.21;100373.68;103114;1295;22567;-67
2022/10/16 05:46:24;;;;;;;14.90;6.20;;;;;;;12.26;97.33;100379.75;103204;1283;22583;-67
2022/10/16 05:48:56;;;;;;;15.70;5.30;;;;;;;12.28;97.29;100381.66;103220;1277;22500;-66
2022/10/16 05:51:28;;;;;;;15.70;5.80;;;;;;;12.30;97.40;100379.44;103190;1306;23215;-67
2022/10/16 05:53:59;;;;;;;14.20;5.40;;;;;;;12.32;97.39;100379.89;103122;1305;22489;-67
2022/10/16 05:56:31;;;;;;;16.90;6.00;;;;;;;12.33;97.59;100382.61;103218;1284;22506;-67
2022/10/16 05:59:03;;;;;;;13.00;5.90;;;;;;;12.35;97.66;100377.94;103252;1282;22489;-66
2022/10/16 06:01:38;;;;;;;16.10;5.00;;;;;;;12.37;97.68;100388.05;103205;1301;22855;-68
2022/10/16 06:04:11;;;;;;;16.90;5.70;;;;;;;12.40;97.71;100388.23;103163;1286;22550;-66
2022/10/16 06:06:43;;;;;;;13.80;5.10;;;;;;;12.43;97.78;100387.31;103122;1278;22483;-67
2022/10/16 06:09:14;;;;;;;11.80;4.10;;;;;;;12.46;97.96;100399.23;103227;1277;22466;-69
2022/10/16 06:11:47;;;;;;;13.00;4.60;;;;;;;12.50;98.22;100408.54;103276;1281;22498;-68
2022/10/16 06:14:18;;;;;;;12.80;4.40;;;;;;;12.53;98.32;100409.56;103244;1283;24327;-67
2022/10/16 06:16:50;;;;;;;11.60;4.90;;;;;;;12.57;98.40;100409.40;103154;1292;25303;-67
2022/10/16 06:19:22;;;;;;;10.80;3.80;;;;;;;12.61;98.53;100410.27;103615;1277;22626;-67
2022/10/16 06:21:54;;;;;;;13.70;4.60;;;;;;;12.65;98.76;100413.70;103504;1306;22672;-67
2022/10/16 06:24:25;;;;;;;12.40;4.30;;;;;;;12.70;98.80;100422.77;103235;1307;22898;-67
2022/10/16 06:26:56;;;;;;;13.80;5.20;;;;;;;12.75;98.74;100422.38;103291;1304;24240;-67
2022/10/16 06:29:28;;;;;;;13.70;4.50;;;;;;;12.80;99.01;100421.83;103328;1285;22855;-68
2022/10/16 06:31:59;;;;;;;12.90;4.50;;;;;;;12.87;99.21;100418.66;103356;1306;22553;-68
2022/10/16 06:34:31;;;;;;;16.90;5.40;;;;;;;12.92;99.10;100424.58;103311;1277;27031;-68
2022/10/16 06:37:03;;;;;;;13.00;4.60;;;;;;;12.97;99.38;100427.91;103143;1285;22973;-67
2022/10/16 06:39:34;;;;;;;12.70;4.60;;;;;;;13.04;99.42;100430.54;103098;1283;24207;-67
2022/10/16 06:42:05;;;;;;;12.70;4.90;;;;;;;13.11;99.73;100432.94;103443;1283;22476;-67
2022/10/16 06:44:54;;;;;;;14.00;5.00;;;;;;;13.18;99.50;100434.91;103218;1285;22467;-67
2022/10/16 06:47:26;;;;;;;13.80;4.90;;;;;;;13.24;99.72;100442.77;103341;1267;22473;-68
2022/10/16 06:49:57;;;;;;;12.60;4.40;;;;;;;13.30;99.81;100444.90;103236;1306;24259;-67
2022/10/16 06:52:30;;;;;;;16.00;5.40;;;;;;;13.37;99.71;100445.02;103170;1285;291946;-67
2022/10/16 06:55:02;;;;;;;15.80;6.10;;;;;;;13.43;99.67;100445.99;103173;1285;25367;-67
2022/10/16 06:57:34;;;;;;;12.20;4.60;;;;;;;13.49;99.83;100452.43;103235;1285;22515;-68
2022/10/16 07:00:07;;;;;;;12.00;4.30;;;;;;;13.56;99.76;100458.77;103306;1288;24118;-68
2022/10/16 07:02:39;;;;;;;11.50;3.90;;;;;;;13.63;99.99;100460.27;103161;1285;24235;-68
2022/10/16 07:05:10;;;;;;;11.10;3.40;;;;;;;13.71;99.96;100465.45;103323;1285;22468;-68
2022/10/16 07:07:42;;;;;;;10.50;3.30;;;;;;;13.78;99.86;100467.72;103449;1297;22585;-68
2022/10/16 07:10:14;;;;;;;9.90;3.80;;;;;;;13.84;99.87;100467.00;103367;1307;22480;-68
2022/10/16 07:12:45;;;;;;;11.50;2.90;;;;;;;13.89;99.86;100468.08;103261;1285;25581;-68
2022/10/16 07:15:16;;;;;;;9.20;2.90;;;;;;;13.96;99.80;100473.91;103313;1282;22681;-68
2022/10/16 07:17:48;;;;;;;14.90;3.60;;;;;;;14.02;99.73;100482.59;103296;1277;23862;-68
2022/10/16 07:20:21;;;;;;;9.30;3.00;;;;;;;14.08;99.71;100479.79;103217;1274;22502;-68
2022/10/16 07:22:52;;;;;;;9.20;2.90;;;;;;;14.14;99.80;100481.52;103229;1287;24346;-67
2022/10/16 07:25:24;;;;;;;7.80;2.60;;;;;;;14.19;99.65;100485.85;103284;1285;22911;-68
2022/10/16 07:27:56;;;;;;;10.00;2.90;;;;;;;14.24;99.73;100487.77;103335;1281;22482;-68
2022/10/16 07:30:28;;;;;;;9.50;2.60;;;;;;;14.26;99.89;100485.66;103384;1278;24325;-68
2022/10/16 07:33:01;;;;;;;8.00;2.30;;;;;;;14.30;99.97;100489.29;103173;1281;24275;-68
2022/10/16 07:35:33;;;;;;;9.40;2.80;;;;;;;14.34;99.97;100490.70;103345;1285;23679;-68
2022/10/16 07:38:04;;;;;;;11.00;3.30;;;;;;;14.37;99.85;100490.48;103297;1301;24369;-67
2022/10/16 07:40:36;;;;;;;9.00;2.80;;;;;;;14.39;99.91;100490.89;103332;1306;22472;-68
2022/10/16 07:43:07;;;;;;;8.50;3.20;;;;;;;14.41;99.81;100491.05;103347;1306;22727;-69
2022/10/16 07:45:39;;;;;;;9.30;2.40;;;;;;;14.44;99.83;100486.08;103338;1278;22803;-68
2022/10/16 07:48:11;;;;;;;8.50;2.50;;;;;;;14.46;99.83;100488.23;103329;1295;23946;-68
2022/10/16 07:50:43;;;;;;;9.30;2.60;;;;;;;14.49;99.84;100489.02;103244;1283;22496;-68
2022/10/16 07:53:15;;;;;;;9.30;2.30;;;;;;;14.52;99.73;100487.25;103395;1295;22596;-67
2022/10/16 07:55:46;;;;;;;7.60;2.40;;;;;;;14.54;99.66;100479.71;103387;1303;22933;-68
2022/10/16 07:58:18;;;;;;;13.10;2.70;;;;;;;14.56;99.63;100480.39;103474;1281;25381;-68
2022/10/16 08:00:49;;;;;;;7.80;2.40;;;;;;;14.58;99.53;100484.48;103553;1281;23901;-68
2022/10/16 08:03:21;;;;;;;7.60;2.80;;;;;;;14.62;99.57;100484.51;103425;1285;24082;-68
2022/10/16 08:05:53;;;;;;;7.10;2.30;;;;;;;14.66;99.60;100493.16;103454;1283;22464;-69
2022/10/16 08:08:24;;;;;;;6.90;2.00;;;;;;;14.71;99.71;100494.02;103512;1284;22615;-69
2022/10/16 08:10:56;;;;;;;9.90;2.30;;;;;;;14.77;99.71;100491.20;103383;1294;22489;-69
2022/10/16 08:13:27;;;;;;;8.40;2.00;;;;;;;14.83;99.61;100494.04;103665;1277;25001;-69
2022/10/16 08:15:58;;;;;;;8.00;2.40;;;;;;;14.89;99.62;100500.91;103436;1285;22725;-67
2022/10/16 08:18:30;;;;;;;8.00;1.90;;;;;;;14.96;99.55;100494.36;103201;1285;23016;-67
2022/10/16 08:21:02;;;;;;;7.50;2.40;;;;;;;15.03;99.47;100499.11;103552;1284;22611;-68
2022/10/16 08:23:36;;;;;;;14.10;2.60;;;;;;;15.09;99.33;100506.09;103400;1280;23116;-68
2022/10/16 08:26:09;;;;;;;10.80;2.40;;;;;;;15.16;99.32;100515.48;103350;1282;22472;-68
2022/10/16 08:28:41;;;;;;;5.90;1.80;;;;;;;15.21;98.99;100511.66;103416;1285;25266;-68
2022/10/16 08:31:14;;;;;;;9.80;2.20;;;;;;;15.26;98.85;100510.71;103482;1285;25851;-68
2022/10/16 08:33:47;;;;;;;7.10;2.20;;;;;;;15.30;98.87;100520.77;103473;1291;22464;-68
2022/10/16 08:36:19;;;;;;;10.90;2.70;;;;;;;15.34;98.72;100522.46;103222;1306;25486;-68
2022/10/16 08:38:54;;;;;;;8.60;2.70;;;;;;;15.36;98.63;100521.98;103196;1285;22535;-68
2022/10/16 08:41:59;;;;;;;10.10;2.30;;;;;;;15.38;98.34;100523.61;103348;1306;22913;-69
2022/10/16 08:44:52;;;;;;;7.40;2.20;;;;;;;15.39;98.17;100525.30;103290;1285;25397;-67
2022/10/16 08:47:27;;;;;;;9.20;2.60;;;;;;;15.42;97.92;100521.64;103177;1292;25386;-70
2022/10/16 08:50:09;;;;;;;8.40;2.50;;;;;;;15.45;97.92;100523.61;103447;1291;22690;-67
2022/10/16 08:52:44;;;;;;;8.10;2.20;;;;;;;15.48;98.06;100523.94;103432;1281;22441;-67
2022/10/16 08:55:30;;;;;;;9.10;2.30;;;;;;;15.51;97.94;100519.70;103342;1288;24362;-69
2022/10/16 08:58:02;;;;;;;9.90;2.00;;;;;;;15.57;97.66;100530.20;103350;1285;24419;-68
2022/10/16 09:00:34;;;;;;;7.50;2.20;;;;;;;15.62;97.78;100535.28;103298;1290;22874;-70
2022/10/16 09:03:18;;;;;;;5.90;1.90;;;;;;;15.65;97.64;100542.20;103448;1285;25922;-69
2022/10/16 09:06:18;;;;;;;6.80;2.20;;;;;;;15.70;97.64;100544.21;103663;1285;24298;-69
2022/10/16 09:09:01;;;;;;;10.20;2.30;;;;;;;15.76;97.72;100543.46;103980;1285;22464;-69
2022/10/16 09:11:44;;;;;;;7.40;2.00;;;;;;;15.82;97.61;100544.09;103740;1307;22484;-69
2022/10/16 09:14:36;;;;;;;8.10;2.00;;;;;;;15.89;97.43;100548.58;103720;1306;24318;-68
2022/10/16 09:17:21;;;;;;;8.10;2.30;;;;;;;15.98;97.43;100548.43;103305;1306;25396;-69
2022/10/16 09:20:01;;;;;;;9.20;2.20;;;;;;;16.05;97.23;100549.83;104684;1292;26293;-68
2022/10/16 09:22:34;;;;;;;5.40;1.60;;;;;;;16.13;97.01;100552.85;103340;1291;22683;-68
2022/10/16 09:25:14;;;;;;;8.50;2.30;;;;;;;16.21;96.90;100551.74;103338;1309;26501;-67
2022/10/16 09:27:49;;;;;;;6.60;2.40;;;;;;;16.29;96.76;100553.34;103470;1277;22495;-67
2022/10/16 09:30:22;;;;;;;9.20;3.00;;;;;;;16.36;96.56;100554.58;103367;1281;22517;-67
2022/10/16 09:32:56;;;;;;;11.10;3.40;;;;;;;16.42;96.48;100557.04;103359;1292;24352;-67
2022/10/16 09:35:33;;;;;;;10.40;3.30;;;;;;;16.48;96.27;100557.96;103436;1306;22513;-67
2022/10/16 09:38:04;;;;;;;10.00;2.50;;;;;;;16.55;96.38;100556.95;103329;1309;22734;-68
2022/10/16 09:40:37;;;;;;;10.10;2.50;;;;;;;16.61;96.44;100555.73;103385;1308;23271;-68
2022/10/16 09:43:21;;;;;;;9.10;3.20;;;;;;;16.68;96.45;100561.09;104035;1282;22673;-68
2022/10/16 09:45:59;;;;;;;10.40;2.90;;;;;;;16.75;96.40;100558.17;103570;1285;24260;-69
2022/10/16 09:48:44;;;;;;;9.40;3.50;;;;;;;16.81;96.07;100557.19;103194;1285;22506;-68
2022/10/16 09:51:23;;;;;;;9.20;3.10;;;;;;;16.85;96.07;100553.80;106807;1282;23254;-68
2022/10/16 09:54:00;;;;;;;11.30;3.50;;;;;;;16.89;95.97;100556.58;103270;1281;23926;-68
2022/10/16 09:56:33;;;;;;;9.40;2.40;;;;;;;16.93;95.82;100552.56;103310;1306;22469;-68
2022/10/16 09:59:13;;;;;;;11.30;2.70;;;;;;;16.98;95.82;100551.02;103408;1305;26767;-68
2022/10/16 10:01:48;;;;;;;7.30;2.90;;;;;;;17.03;95.71;100548.08;103221;1306;22482;-67
2022/10/16 10:04:20;;;;;;;8.30;2.30;;;;;;;17.07;95.60;100550.67;103726;1284;24406;-67
2022/10/16 10:06:55;;;;;;;8.60;2.50;;;;;;;17.13;95.75;100547.90;103336;1278;22480;-68
2022/10/16 10:09:29;;;;;;;8.30;2.30;;;;;;;17.20;95.43;100545.05;103333;1281;25279;-68
2022/10/16 10:12:03;;;;;;;12.60;2.70;;;;;;;17.31;95.16;100547.17;103657;1284;24408;-69
2022/10/16 10:14:37;;;;;;;12.40;2.70;;;;;;;17.40;94.93;100546.79;103344;1308;22482;-68
2022/10/16 10:17:18;;;;;;;8.00;2.00;;;;;;;17.48;94.59;100550.30;103356;1280;22595;-69
2022/10/16 10:19:55;;;;;;;6.30;1.80;;;;;;;17.58;94.15;100550.48;103504;1274;24058;-68
2022/10/16 10:22:40;;;;;;;6.10;1.60;;;;;;;17.70;94.00;100551.66;103579;1285;24704;-68
2022/10/16 10:25:36;;;;;;;6.20;1.70;;;;;;;17.82;93.65;100549.48;103587;1278;25810;-68
2022/10/16 10:28:30;;;;;;;4.10;1.30;;;;;;;17.94;93.20;100549.16;103425;1285;22484;-69
2022/10/16 10:31:12;;;;;;;3.20;1.00;;;;;;;18.07;92.67;100547.74;103531;1283;24257;-68
2022/10/16 10:33:54;;;;;;;7.30;1.20;;;;;;;18.21;92.31;100545.74;103132;1281;22466;-69
2022/10/16 10:36:39;;;;;;;6.30;1.40;;;;;;;18.32;92.40;100552.71;103352;1309;24832;-67
2022/10/16 10:39:17;;;;;;;4.60;1.30;;;;;;;18.44;92.03;100549.48;103350;1285;22599;-67
2022/10/16 10:42:17;;;;;;;5.00;1.10;;;;;;;18.54;91.82;100547.20;103319;1278;26611;-68
2022/10/16 10:45:18;;;;;;;3.60;0.80;;;;;;;18.66;91.45;100557.23;103244;1281;24225;-68
2022/10/16 10:48:06;;;;;;;3.40;0.70;;;;;;;18.79;90.56;100552.44;103167;1297;22598;-68
2022/10/16 10:50:44;;;;;;;2.30;0.70;;;;;;;18.89;89.81;100556.61;102988;1313;22750;-68
2022/10/16 10:53:25;;;;;;;3.00;0.80;;;;;;;19.00;89.74;100554.29;102972;1289;22434;-67
2022/10/16 10:56:07;;;;;;;4.00;0.80;;;;;;;19.13;89.18;100546.90;104236;1307;22510;-71
2022/10/16 10:58:58;;;;;;;2.90;0.70;;;;;;;19.25;88.83;100551.54;102824;1291;25566;-70
2022/10/16 11:01:40;;;;;;;4.30;0.70;;;;;;;19.36;87.89;100542.99;103476;1291;22593;-68
2022/10/16 11:04:35;;;;;;;2.90;0.80;;;;;;;19.42;87.28;100544.37;104260;1283;22605;-68
2022/10/16 11:07:12;;;;;;;5.10;0.90;;;;;;;19.46;87.45;100541.49;102546;1296;22510;-69
2022/10/16 11:09:49;;;;;;;2.70;0.80;;;;;;;19.50;87.39;100542.52;102231;1296;22519;-71
2022/10/16 11:12:25;;;;;;;5.40;0.90;;;;;;;19.55;86.99;100535.16;102324;1295;23217;-68
2022/10/16 11:15:03;;;;;;;3.40;0.70;;;;;;;19.63;86.23;100541.07;102279;1296;22554;-72
2022/10/16 11:17:40;;;;;;;1.80;0.50;;;;;;;19.72;85.97;100545.42;102224;1295;24280;-67
2022/10/16 11:20:20;;;;;;;2.70;0.60;;;;;;;19.78;84.95;100536.48;102201;1288;25566;-70
2022/10/16 11:22:57;;;;;;;2.20;0.60;;;;;;;19.86;84.94;100536.58;102236;1296;25493;-67
2022/10/16 11:25:31;;;;;;;2.50;0.60;;;;;;;19.94;84.38;100534.45;102484;1294;22499;-70
2022/10/16 11:28:09;;;;;;;2.40;0.50;;;;;;;20.00;84.00;100531.52;102932;1288;25198;-67
2022/10/16 11:30:50;;;;;;;2.60;0.60;;;;;;;20.06;83.82;100528.03;102866;1313;23968;-67
2022/10/16 11:33:31;;;;;;;2.10;0.70;;;;;;;20.07;83.51;100523.45;102819;1286;22558;-71
2022/10/16 11:36:10;;;;;;;3.30;0.90;;;;;;;20.05;82.78;100529.85;102911;1289;22512;-68
2022/10/16 11:38:50;;;;;;;2.40;0.60;;;;;;;20.02;82.60;100527.84;102886;1291;22578;-67
2022/10/16 11:41:28;;;;;;;1.60;0.50;;;;;;;19.99;82.17;100523.86;102813;1286;22476;-69
2022/10/16 11:44:15;;;;;;;2.40;0.50;;;;;;;19.95;81.74;100521.88;102951;1313;22486;-68
2022/10/16 11:46:54;;;;;;;2.90;0.90;;;;;;;19.94;81.73;100529.31;103429;1301;24273;-67